De Leon, TX (76444)

10:43 PM CDT on May 25, 2015 (GMT -0500)
KTXGORMA2 | | Change Station
CLOSE
Current Station
Personal Weather Station
Location: Gorman, TX
Elevation: 1452 ft
Nearby Weather Stations

Elev 1452 ft 32.22 °N, 98.68 °W | Updated 57 seconds ago

Partly Cloudy
Partly Cloudy
59.9 °F
Feels Like 59.9 °F
N
2.0
Wind Variable Wind from ESE
Gusts 19.0 mph

Today
High -- | Low -- °F
--% Chance of Precip.
Yesterday
High -- | Low -- °F
Precip. -- in
6:31 AM 8:31 PM
First Quarter, 54% visible
Pressure 29.92 in
Visibility 0.8 miles
Clouds Overcast 200 ft
Dew Point 59 °F
Humidity 98%
Rainfall 0.54 in
Snow Depth Not available.
UV 0 out of 12
Pollen 2.40 out of 12
Air Quality Not available.
Flu Activity Sporadic
METAR KMKN 260335Z AUTO 16004KT 3/4SM BR OVC002 15/15 A2992 RMK AO2 T01490149

More Conditions Fewer Conditions

Pressure 29.92 in
Visibility 0.8 miles
Clouds Overcast 200 ft
Dew Point 59 °F
Humidity 98%
Rainfall 0.54 in
Snow Depth Not available.
UV 0 out of 12
Pollen 2.40 out of 12
Air Quality Not available.
Flu Activity Sporadic
METAR KMKN 260335Z AUTO 16004KT 3/4SM BR OVC002 15/15 A2992 RMK AO2 T01490149

More Conditions Fewer Conditions

Nowcast | as of 8:57 PM CDT on May 25, 2015

Areas of light to moderate rain will continue to move eastward through the evening hours mainly along and east of a Paris to Fairfield to Cameron line. Residual flooding of area roads may continue through the overnight hours. Otherwise...expect clearing conditions this evening with cool and humid conditions. Temperatures in the mid 60s are expected to prevail through the overnight hours...and areas of dense fog may develop where clouds clear out.

×

10-Day Weather Forecast

Almanac

Astronomy

May. 25, 2015 Rise Set
Actual Time
Civil Twilight
Nautical Twilight
Astronomical Twilight
Moon
Length of Visible Light
Length of Day
Tomorrow will be .
, % of the Moon is Illuminated

Today's Extremes

State Highs State Lows

Community

WunderPhotos

Upload Photos

1,824,269 photos uploaded!

WunderBlogs® & News

Nearby

Air Quality

  Air Quality AQ Index Pollutant
Not available.

Snow Depth

Station Depth Elevation

Earthquake Activity

City Distance Mag. Time & Date
Minimum magnitude displayed is 2.5.

Coastal Water Temperatures

Place Temperature

Stations

Nearby Weather Stations

Station Location Temp. Windchill Dew Point Humidity Wind Precip. Elev Updated Type